BER7300 EDDB-EPWA
Flight info
| Callsign | BER7300 |
|---|---|
| Flight time | N/A |
| Altitude | 35000 |
| Route | ARSAP4N/24L ARSAP Y209 KELOD DCT OBOKU DCT DOSIX DCT BIMPA BIMPA6U |
| Aircraft | A321/M-SDE3FGHIRWY/LB1 |
Departure
| Time | 2026-05-04 19:07 |
|---|---|
| Airport | Berlin Brandenburg Airport (EDDB) |
Arrival
| Time | N/A |
|---|---|
| Airport | Warsaw Chopin Airport (EPWA) |
| Time | Latitude | Longitude | Altitude | Speed | Heading |
|---|---|---|---|---|---|
| 2026-05-04 18:21 | 52.36201 | 13.51652 | 156 ft | 0 kts | 339° |
| 2026-05-04 18:59 | 52.36196 | 13.51656 | 155 ft | 2 kts | 339° |
| 2026-05-04 18:59 | 52.36177 | 13.51668 | 155 ft | 3 kts | 339° |
| 2026-05-04 18:59 | 52.36162 | 13.51678 | 155 ft | 3 kts | 359° |
| 2026-05-04 18:59 | 52.36149 | 13.51671 | 156 ft | 2 kts | 31° |
| 2026-05-04 19:00 | 52.36142 | 13.51664 | 156 ft | 2 kts | 31° |
| 2026-05-04 19:00 | 52.36127 | 13.51648 | 156 ft | 3 kts | 40° |
| 2026-05-04 19:00 | 52.36109 | 13.51617 | 156 ft | 3 kts | 57° |
| 2026-05-04 19:00 | 52.36102 | 13.51598 | 155 ft | 3 kts | 65° |
| 2026-05-04 19:01 | 52.36095 | 13.51571 | 155 ft | 2 kts | 69° |
| 2026-05-04 19:01 | 52.36093 | 13.51566 | 155 ft | 1 kts | 69° |
| 2026-05-04 19:03 | 52.36107 | 13.51622 | 155 ft | 13 kts | 68° |
| 2026-05-04 19:04 | 52.36136 | 13.51788 | 155 ft | 14 kts | 103° |
| 2026-05-04 19:04 | 52.36083 | 13.51885 | 153 ft | 11 kts | 110° |
| 2026-05-04 19:04 | 52.36098 | 13.51990 | 152 ft | 0 kts | 70° |
| 2026-05-04 19:05 | 52.36107 | 13.52043 | 152 ft | 13 kts | 81° |
| 2026-05-04 19:05 | 52.36030 | 13.52163 | 153 ft | 17 kts | 159° |
| 2026-05-04 19:05 | 52.35930 | 13.52228 | 156 ft | 14 kts | 159° |
| 2026-05-04 19:06 | 52.35844 | 13.52265 | 158 ft | 11 kts | 188° |
| 2026-05-04 19:06 | 52.35814 | 13.52210 | 159 ft | 0 kts | 251° |
| 2026-05-04 19:06 | 52.35812 | 13.52200 | 159 ft | 10 kts | 251° |
| 2026-05-04 19:06 | 52.35678 | 13.51617 | 159 ft | 95 kts | 249° |
| 2026-05-04 19:07 | 52.35364 | 13.50283 | 157 ft | 154 kts | 250° |
| 2026-05-04 19:07 | 52.34963 | 13.48561 | 514 ft | 168 kts | 250° |
| 2026-05-04 19:07 | 52.34529 | 13.46761 | 1237 ft | 166 kts | 250° |
| 2026-05-04 19:07 | 52.34022 | 13.45052 | 1855 ft | 171 kts | 239° |
| 2026-05-04 19:08 | 52.33232 | 13.43454 | 2153 ft | 192 kts | 229° |
| 2026-05-04 19:08 | 52.32290 | 13.41742 | 2344 ft | 214 kts | 229° |
| 2026-05-04 19:08 | 52.31272 | 13.39877 | 2648 ft | 234 kts | 229° |
| 2026-05-04 19:08 | 52.30176 | 13.37869 | 3481 ft | 235 kts | 229° |
| 2026-05-04 19:09 | 52.29126 | 13.35950 | 4560 ft | 233 kts | 229° |
| 2026-05-04 19:09 | 52.28093 | 13.34070 | 5440 ft | 237 kts | 227° |
| 2026-05-04 19:09 | 52.26684 | 13.32493 | 5944 ft | 261 kts | 199° |
| 2026-05-04 19:09 | 52.24846 | 13.32335 | 6714 ft | 273 kts | 167° |
| 2026-05-04 19:10 | 52.23178 | 13.33853 | 7592 ft | 284 kts | 135° |
| 2026-05-04 19:10 | 52.22264 | 13.36492 | 8414 ft | 293 kts | 105° |
| 2026-05-04 19:10 | 52.22049 | 13.39821 | 9319 ft | 299 kts | 92° |
| 2026-05-04 19:10 | 52.22063 | 13.43241 | 10167 ft | 305 kts | 89° |
| 2026-05-04 19:11 | 52.22159 | 13.46831 | 10530 ft | 329 kts | 88° |
| 2026-05-04 19:11 | 52.22277 | 13.50658 | 11032 ft | 344 kts | 88° |
| 2026-05-04 19:11 | 52.22379 | 13.54588 | 11796 ft | 350 kts | 89° |
| 2026-05-04 19:11 | 52.22453 | 13.58533 | 12612 ft | 355 kts | 90° |
| 2026-05-04 19:12 | 52.22503 | 13.62584 | 13444 ft | 359 kts | 90° |
| 2026-05-04 19:12 | 52.22558 | 13.70836 | 14942 ft | 368 kts | 91° |
| 2026-05-04 19:12 | 52.22579 | 13.75036 | 15664 ft | 373 kts | 91° |
| 2026-05-04 19:13 | 52.22602 | 13.79288 | 16395 ft | 377 kts | 91° |
| 2026-05-04 19:13 | 52.22624 | 13.83590 | 17125 ft | 381 kts | 91° |
| 2026-05-04 19:13 | 52.22644 | 13.87933 | 17853 ft | 386 kts | 91° |
| 2026-05-04 19:13 | 52.22663 | 13.92338 | 18538 ft | 390 kts | 91° |
| 2026-05-04 19:14 | 52.22682 | 13.96783 | 19154 ft | 394 kts | 91° |
| 2026-05-04 19:14 | 52.22701 | 14.01261 | 19769 ft | 398 kts | 91° |
| 2026-05-04 19:14 | 52.22722 | 14.05738 | 20374 ft | 402 kts | 91° |
| 2026-05-04 19:14 | 52.22744 | 14.10281 | 20977 ft | 406 kts | 91° |
| 2026-05-04 19:15 | 52.22763 | 14.14907 | 21580 ft | 410 kts | 91° |
| 2026-05-04 19:15 | 52.22776 | 14.19521 | 22165 ft | 414 kts | 91° |
| 2026-05-04 19:15 | 52.22787 | 14.24241 | 22745 ft | 418 kts | 91° |
| 2026-05-04 19:15 | 52.22798 | 14.29003 | 23325 ft | 422 kts | 91° |
| 2026-05-04 19:16 | 52.22809 | 14.33820 | 23827 ft | 426 kts | 91° |
| 2026-05-04 19:16 | 52.22817 | 14.38665 | 24288 ft | 430 kts | 91° |
| 2026-05-04 19:16 | 52.22822 | 14.43553 | 24744 ft | 433 kts | 91° |
| 2026-05-04 19:16 | 52.22826 | 14.48483 | 25200 ft | 437 kts | 91° |
| 2026-05-04 19:17 | 52.22826 | 14.53460 | 25654 ft | 440 kts | 91° |
| 2026-05-04 19:17 | 52.22825 | 14.58474 | 26093 ft | 444 kts | 91° |
| 2026-05-04 19:17 | 52.22819 | 14.63459 | 26542 ft | 447 kts | 91° |
| 2026-05-04 19:17 | 52.22812 | 14.68549 | 26990 ft | 451 kts | 91° |
| 2026-05-04 19:18 | 52.22806 | 14.73681 | 27429 ft | 455 kts | 91° |
| 2026-05-04 19:18 | 52.22827 | 14.78878 | 27864 ft | 458 kts | 90° |
| 2026-05-04 19:18 | 52.22877 | 14.84082 | 28279 ft | 462 kts | 90° |
| 2026-05-04 19:18 | 52.22943 | 14.89351 | 28714 ft | 465 kts | 90° |
| 2026-05-04 19:19 | 52.23008 | 14.94575 | 29119 ft | 469 kts | 90° |
| 2026-05-04 19:19 | 52.23066 | 14.99907 | 29528 ft | 472 kts | 90° |
| 2026-05-04 19:19 | 52.23112 | 15.04794 | 29894 ft | 475 kts | 90° |
| 2026-05-04 19:19 | 52.23181 | 15.10195 | 30252 ft | 478 kts | 88° |
| 2026-05-04 19:20 | 52.23363 | 15.15628 | 30616 ft | 481 kts | 86° |
| 2026-05-04 19:20 | 52.23638 | 15.21071 | 30982 ft | 483 kts | 85° |
| 2026-05-04 19:20 | 52.23963 | 15.26542 | 31360 ft | 485 kts | 84° |
| 2026-05-04 19:20 | 52.24297 | 15.32011 | 31843 ft | 484 kts | 85° |
| 2026-05-04 19:21 | 52.24612 | 15.37475 | 32383 ft | 482 kts | 85° |
| 2026-05-04 19:21 | 52.24897 | 15.42916 | 32836 ft | 482 kts | 86° |
| 2026-05-04 19:21 | 52.25151 | 15.48274 | 32935 ft | 477 kts | 86° |
| 2026-05-04 19:21 | 52.25390 | 15.53595 | 32952 ft | 463 kts | 86° |
| 2026-05-04 19:22 | 52.25616 | 15.58810 | 32947 ft | 458 kts | 86° |
| 2026-05-04 19:22 | 52.26041 | 15.68501 | 32949 ft | 456 kts | 86° |
| 2026-05-04 19:23 | 52.26499 | 15.78637 | 32948 ft | 456 kts | 86° |
| 2026-05-04 19:23 | 52.26882 | 15.87214 | 32946 ft | 456 kts | 86° |
| 2026-05-04 19:24 | 52.27392 | 15.99204 | 32946 ft | 456 kts | 86° |
| 2026-05-04 19:24 | 52.27822 | 16.09523 | 32942 ft | 455 kts | 86° |
| 2026-05-04 19:25 | 52.28258 | 16.19837 | 32943 ft | 455 kts | 86° |
| 2026-05-04 19:25 | 52.28667 | 16.29940 | 32944 ft | 455 kts | 86° |
| 2026-05-04 19:26 | 52.29073 | 16.40206 | 32937 ft | 455 kts | 86° |
| 2026-05-04 19:26 | 52.29473 | 16.50520 | 32934 ft | 455 kts | 86° |
| 2026-05-04 19:27 | 52.29863 | 16.60843 | 32932 ft | 455 kts | 87° |
| 2026-05-04 19:27 | 52.30247 | 16.71171 | 32928 ft | 455 kts | 87° |
| 2026-05-04 19:28 | 52.30618 | 16.81499 | 32929 ft | 455 kts | 87° |
| 2026-05-04 19:28 | 52.30973 | 16.91650 | 32930 ft | 455 kts | 87° |
| 2026-05-04 19:29 | 52.31325 | 17.01990 | 32933 ft | 456 kts | 87° |
| 2026-05-04 19:29 | 52.31562 | 17.08899 | 32932 ft | 456 kts | 87° |
| 2026-05-04 19:30 | 52.31789 | 17.15745 | 32935 ft | 455 kts | 87° |